Date,TemperatureHighF,TemperatureAvgF,TemperatureLowF,DewpointHighF,DewpointAvgF,DewpointLowF,HumidityHigh,HumidityAvg,HumidityLow,PressureMaxIn,PressureMinIn,WindSpeedMaxMPH,WindSpeedAvgMPH,GustSpeedMaxMPH,PrecipitationSumIn
2013-2-1,21.0,10.7,4.0,15.4,8.5,4.0,100,91,65,30.36,30.08,17,4,17,0.00
2013-2-2,32.0,25.1,14.0,31.0,24.1,14.0,100,96,69,30.20,29.93,11,3,14,0.04
2013-2-3,28.0,20.9,15.0,27.3,20.3,15.0,100,98,79,30.04,29.88,11,2,19,0.00
2013-2-4,40.0,28.7,15.0,38.0,26.9,15.0,100,94,64,30.02,29.74,10,2,15,0.12
2013-2-5,45.0,34.3,22.0,38.4,32.3,22.0,100,93,70,29.98,29.81,9,2,15,0.02
2013-2-6,40.0,34.4,30.0,36.3,32.2,30.0,100,92,73,30.19,29.99,9,3,11,0.00
2013-2-7,67.0,46.1,30.0,53.0,38.3,30.0,100,78,36,30.07,29.79,9,2,13,0.26
2013-2-8,50.0,35.8,33.0,50.0,35.2,30.1,100,98,89,30.27,29.81,16,5,18,0.05
2013-2-9,47.0,34.5,20.0,33.0,26.7,20.0,100,76,45,30.32,30.07,12,3,15,0.00
2013-2-10,53.0,44.9,36.0,53.0,39.9,24.4,100,83,60,30.07,29.72,13,4,22,0.23
2013-2-11,54.0,45.3,36.0,54.0,35.7,29.3,100,70,51,30.02,29.72,15,5,26,0.00
2013-2-12,52.0,38.7,26.0,35.0,30.2,26.0,100,74,39,30.09,29.83,7,2,11,0.00
2013-2-13,48.0,36.6,31.0,35.0,31.3,25.3,100,84,43,29.84,29.73,11,3,14,0.00
2013-2-14,56.0,43.0,34.0,42.1,36.7,30.7,100,81,52,29.97,29.79,16,4,16,0.00
2013-2-15,41.0,32.9,22.0,35.7,26.7,17.8,100,80,45,30.09,29.91,17,3,17,0.00
2013-2-16,32.0,24.0,17.0,24.0,16.3,9.5,100,75,40,30.08,30.01,15,3,19,0.00
2013-2-17,43.0,26.8,11.0,24.0,15.1,10.5,100,66,31,30.17,30.03,7,2,10,0.00
2013-2-18,62.0,44.6,29.0,47.7,31.9,16.5,100,63,36,30.04,29.62,13,5,22,0.41
2013-2-19,47.0,30.3,23.0,47.0,25.7,15.6,100,83,68,30.09,29.61,19,7,23,0.19
2013-2-20,32.0,23.1,15.0,18.1,15.1,12.6,94,72,52,30.26,30.09,11,4,16,0.00
2013-2-21,35.0,25.8,17.0,31.0,22.3,15.8,100,88,62,30.24,29.86,16,4,17,0.00
2013-2-22,40.0,35.5,31.0,40.0,34.9,31.0,100,98,88,29.94,29.74,11,3,14,0.41
2013-2-23,45.0,33.4,22.0,32.0,27.0,22.0,100,79,47,29.95,29.87,9,3,13,0.00
2013-2-24,51.0,33.2,17.0,34.0,25.8,17.0,100,78,42,30.09,29.89,7,1,9,0.00
2013-2-25,51.0,36.7,24.0,29.3,26.6,24.0,100,71,40,30.04,29.73,12,3,20,0.00
2013-2-26,45.0,41.2,36.0,45.0,38.1,26.0,100,91,55,29.73,29.32,15,3,20,0.99
2013-2-27,41.0,35.2,32.0,41.0,35.2,32.0,100,100,96,29.69,29.48,12,5,17,0.03
2013-2-28,38.0,34.0,31.0,38.0,34.0,31.0,100,100,100,29.93,29.67,12,4,14,0.06